Station: EBLB - 25/07/2017 16:25Z (il y a 11 minutes)
EBLB 251625Z AUTO 31011KT 6000 -RA BKN009/// OVC052/// 13/12 Q1010 GRN
Vent du 310º - 11 kt
Visibilité: 6000 m (faible pluie)
Ciel 75% couvert à 900 pieds - Ciel couvert à 5200 pieds
Température: +13ºC - Point de rosée: +12ºC - QNH: 1010 hPa
Code couleur militaire: GRN (conditions IMC ou marginales)